createdAt,value
2023-04-08T00:00:18.136Z,3.31
2023-04-08T00:03:03.346Z,3.34
2023-04-08T00:05:47.905Z,3.27
2023-04-08T00:08:32.760Z,3.23
2023-04-08T00:11:17.522Z,3.32
2023-04-08T00:14:02.506Z,3.17
2023-04-08T00:16:47.354Z,3.28
2023-04-08T00:19:33.530Z,3.24
2023-04-08T00:22:19.381Z,3.22
2023-04-08T00:25:04.282Z,3.12
2023-04-08T00:27:49.223Z,3.08
2023-04-08T00:30:34.060Z,3.23
2023-04-08T00:33:18.965Z,3.25
2023-04-08T00:36:03.775Z,3.18
2023-04-08T00:38:48.722Z,3.24
2023-04-08T00:41:33.884Z,3.26
2023-04-08T00:44:18.843Z,3.20
2023-04-08T00:47:03.894Z,3.21
2023-04-08T00:49:48.720Z,3.16
2023-04-08T00:52:33.731Z,3.15
2023-04-08T00:55:18.496Z,3.12
2023-04-08T00:58:03.522Z,3.16
2023-04-08T01:00:48.485Z,3.12
2023-04-08T01:03:33.388Z,3.02
2023-04-08T01:06:18.258Z,2.98
2023-04-08T01:09:07.158Z,3.01
2023-04-08T01:11:51.801Z,2.92
2023-04-08T01:14:36.704Z,3.07
2023-04-08T01:17:21.648Z,3.05
2023-04-08T01:20:06.444Z,3.05
2023-04-08T01:22:51.353Z,3.05
2023-04-08T01:25:36.356Z,2.91
2023-04-08T01:28:21.054Z,3.04
2023-04-08T01:31:06.085Z,2.99
2023-04-08T01:33:51.203Z,2.91
2023-04-08T01:36:36.153Z,3.01
2023-04-08T01:39:21.046Z,2.98
2023-04-08T01:42:05.940Z,2.89
2023-04-08T01:44:50.864Z,2.90
2023-04-08T01:47:35.798Z,2.94
2023-04-08T01:50:20.663Z,2.88
2023-04-08T01:53:05.510Z,2.74
2023-04-08T01:55:50.429Z,2.74
2023-04-08T01:58:35.182Z,2.90
2023-04-08T02:01:20.155Z,2.89
2023-04-08T02:04:04.915Z,2.81
2023-04-08T02:06:49.981Z,2.82
2023-04-08T02:09:34.924Z,2.93
2023-04-08T02:12:19.908Z,2.92
2023-04-08T02:15:04.841Z,2.87
2023-04-08T02:17:49.758Z,2.84
2023-04-08T02:20:34.652Z,2.73
2023-04-08T02:23:19.535Z,2.74
2023-04-08T02:26:04.450Z,2.70
2023-04-08T02:28:49.525Z,2.62
2023-04-08T02:31:34.646Z,2.66
2023-04-08T02:34:19.536Z,2.62
2023-04-08T02:37:04.389Z,2.64
2023-04-08T02:39:49.439Z,2.63
2023-04-08T02:42:34.367Z,2.60
2023-04-08T02:45:19.425Z,2.57
2023-04-08T02:48:04.483Z,2.57
2023-04-08T02:50:49.347Z,2.58
2023-04-08T02:53:34.215Z,2.62
2023-04-08T02:56:19.094Z,2.52
2023-04-08T02:59:03.956Z,2.53
2023-04-08T03:01:49.021Z,2.54
2023-04-08T03:04:33.935Z,2.46
2023-04-08T03:07:18.800Z,2.56
2023-04-08T03:10:03.806Z,2.57
2023-04-08T03:12:48.762Z,2.49
2023-04-08T03:15:33.768Z,2.47
2023-04-08T03:18:18.627Z,2.42
2023-04-08T03:21:03.574Z,2.43
2023-04-08T03:23:48.589Z,2.46
2023-04-08T03:26:33.616Z,2.38
2023-04-08T03:29:18.528Z,2.34
2023-04-08T03:32:03.466Z,2.27
2023-04-08T03:34:48.324Z,2.22
2023-04-08T03:37:33.223Z,2.18
2023-04-08T03:40:18.216Z,2.14
2023-04-08T03:43:03.208Z,2.09
2023-04-08T03:45:48.163Z,2.22
2023-04-08T03:48:33.064Z,2.21
2023-04-08T03:51:17.932Z,2.24
2023-04-08T03:54:02.720Z,2.16
2023-04-08T03:56:47.361Z,2.19
2023-04-08T03:59:32.174Z,2.14
2023-04-08T04:02:17.087Z,2.11
2023-04-08T04:05:02.056Z,2.11
2023-04-08T04:07:46.812Z,2.25
2023-04-08T04:10:31.754Z,2.13
2023-04-08T04:13:16.665Z,2.20
2023-04-08T04:16:01.654Z,2.02
2023-04-08T04:18:46.636Z,2.12
2023-04-08T04:21:31.459Z,2.03
2023-04-08T04:24:16.438Z,2.01
2023-04-08T04:27:01.311Z,2.05
2023-04-08T04:29:46.131Z,2.07
2023-04-08T04:32:31.024Z,1.90
2023-04-08T04:35:15.906Z,1.88
2023-04-08T04:38:00.912Z,1.82
2023-04-08T04:40:45.895Z,1.77
2023-04-08T04:43:30.966Z,1.74
2023-04-08T04:46:15.679Z,1.99
2023-04-08T04:49:00.483Z,1.89
2023-04-08T04:51:45.492Z,1.79
2023-04-08T04:54:30.487Z,1.81
2023-04-08T04:57:15.412Z,1.85
2023-04-08T05:00:01.010Z,1.79
2023-04-08T05:02:47.074Z,1.84
2023-04-08T05:05:31.835Z,1.77
2023-04-08T05:08:16.842Z,1.83
2023-04-08T05:11:01.764Z,1.81
2023-04-08T05:13:46.658Z,1.83
2023-04-08T05:16:31.529Z,1.81
2023-04-08T05:19:16.416Z,1.82
2023-04-08T05:22:01.445Z,1.86
2023-04-08T05:24:46.216Z,1.79
2023-04-08T05:27:31.226Z,1.72
2023-04-08T05:30:15.998Z,1.82
2023-04-08T05:33:01.070Z,1.88
2023-04-08T05:35:45.876Z,2.03
2023-04-08T05:38:30.786Z,1.93
2023-04-08T05:41:15.646Z,1.92
2023-04-08T05:44:00.666Z,1.98
2023-04-08T05:46:45.628Z,2.05
2023-04-08T05:49:30.334Z,1.99
2023-04-08T05:52:15.273Z,1.97
2023-04-08T05:55:00.136Z,1.92
2023-04-08T05:57:45.044Z,1.90
2023-04-08T06:00:29.934Z,1.96
2023-04-08T06:03:15.848Z,1.94
2023-04-08T06:06:02.119Z,1.92
2023-04-08T06:08:47.105Z,1.96
2023-04-08T06:11:31.931Z,1.88
2023-04-08T06:14:16.907Z,1.95
2023-04-08T06:17:01.984Z,2.12
2023-04-08T06:19:46.789Z,2.21
2023-04-08T06:22:32.096Z,2.26
2023-04-08T06:25:16.992Z,2.33
2023-04-08T06:28:01.613Z,2.48
2023-04-08T06:30:46.609Z,2.53
2023-04-08T06:33:31.407Z,2.69
2023-04-08T06:36:16.358Z,2.66
2023-04-08T06:39:01.106Z,2.68
2023-04-08T06:41:46.287Z,2.81
2023-04-08T06:44:30.810Z,3.04
2023-04-08T06:47:15.855Z,2.90
2023-04-08T06:50:00.700Z,2.99
2023-04-08T06:52:45.686Z,3.22
2023-04-08T06:55:30.533Z,3.55
2023-04-08T06:58:15.286Z,3.44
2023-04-08T07:01:00.211Z,3.60
2023-04-08T07:03:45.159Z,3.62
2023-04-08T07:06:29.944Z,3.88
2023-04-08T07:09:14.635Z,3.94
2023-04-08T07:11:59.763Z,3.96
2023-04-08T07:14:44.363Z,4.08
2023-04-08T07:17:29.393Z,4.15
2023-04-08T07:20:14.149Z,4.22
2023-04-08T07:22:58.987Z,4.52
2023-04-08T07:25:44.010Z,4.25
2023-04-08T07:28:28.810Z,4.44
2023-04-08T07:31:13.804Z,4.24
2023-04-08T07:33:58.662Z,4.58
2023-04-08T07:36:43.568Z,4.95
2023-04-08T07:39:28.420Z,5.08
2023-04-08T07:42:13.316Z,5.01
2023-04-08T07:44:58.359Z,5.15
2023-04-08T07:47:43.170Z,5.15
2023-04-08T07:50:28.252Z,5.25
2023-04-08T07:53:13.136Z,5.42
2023-04-08T07:55:57.965Z,5.39
2023-04-08T07:58:42.841Z,5.76
2023-04-08T08:01:27.729Z,5.86
2023-04-08T08:04:12.690Z,5.93
2023-04-08T08:06:58.157Z,5.98
2023-04-08T08:09:43.244Z,6.34
2023-04-08T08:12:28.487Z,6.22
2023-04-08T08:15:13.515Z,6.35
2023-04-08T08:17:58.321Z,6.58
2023-04-08T08:20:43.563Z,6.80
2023-04-08T08:23:28.219Z,6.83
2023-04-08T08:26:13.256Z,6.87
2023-04-08T08:28:57.917Z,7.12
2023-04-08T08:31:42.968Z,7.16
2023-04-08T08:34:27.883Z,7.17
2023-04-08T08:37:12.829Z,7.08
2023-04-08T08:39:57.804Z,7.34
2023-04-08T08:42:43.256Z,7.47
2023-04-08T08:45:28.194Z,7.32
2023-04-08T08:48:13.082Z,7.25
2023-04-08T08:50:57.973Z,7.26
2023-04-08T08:53:43.099Z,7.30
2023-04-08T08:56:28.095Z,7.52
2023-04-08T08:59:13.721Z,7.69
2023-04-08T09:02:00.418Z,7.57
2023-04-08T09:04:46.278Z,7.68
2023-04-08T09:07:31.233Z,7.73
2023-04-08T09:10:17.244Z,7.44
2023-04-08T09:13:05.775Z,7.78
2023-04-08T09:15:52.703Z,7.36
2023-04-08T09:18:37.361Z,7.47
2023-04-08T09:21:22.501Z,7.04
2023-04-08T09:24:07.648Z,7.25
2023-04-08T09:26:52.487Z,7.73
2023-04-08T09:29:39.702Z,7.82
2023-04-08T09:32:25.167Z,7.71
2023-04-08T09:35:10.073Z,7.68
2023-04-08T09:37:54.871Z,7.50
2023-04-08T09:40:39.818Z,8.03
2023-04-08T09:43:24.819Z,8.44
2023-04-08T09:46:09.713Z,8.48
2023-04-08T09:48:54.805Z,8.55
2023-04-08T09:51:40.333Z,8.62
2023-04-08T09:54:25.247Z,8.48
2023-04-08T09:57:10.104Z,8.15
2023-04-08T09:59:55.086Z,8.27
2023-04-08T10:02:39.974Z,8.70
2023-04-08T10:05:24.744Z,8.67
2023-04-08T10:08:09.511Z,8.44
2023-04-08T10:10:54.450Z,8.69
2023-04-08T10:13:39.366Z,8.29
2023-04-08T10:16:24.232Z,8.55
2023-04-08T10:19:09.128Z,8.74
2023-04-08T10:21:54.095Z,8.86
2023-04-08T10:24:38.967Z,9.03
2023-04-08T10:27:23.723Z,9.14
2023-04-08T10:30:08.719Z,9.37
2023-04-08T10:32:53.792Z,9.38
2023-04-08T10:35:38.954Z,9.47
2023-04-08T10:38:23.998Z,9.68
2023-04-08T10:41:08.957Z,9.63
2023-04-08T10:43:53.746Z,9.78
2023-04-08T10:46:38.857Z,9.58
2023-04-08T10:49:23.481Z,9.86
2023-04-08T10:52:08.378Z,9.81
2023-04-08T10:54:53.349Z,9.79
2023-04-08T10:57:38.263Z,10.08
2023-04-08T11:00:23.113Z,10.33
2023-04-08T11:03:08.343Z,9.72
2023-04-08T11:05:53.720Z,9.85
2023-04-08T11:08:39.823Z,9.93
2023-04-08T11:11:24.636Z,10.04
2023-04-08T11:14:09.454Z,10.21
2023-04-08T11:16:54.240Z,10.30
2023-04-08T11:19:38.957Z,10.36
2023-04-08T11:22:23.570Z,10.02
2023-04-08T11:25:08.420Z,10.05
2023-04-08T11:27:53.331Z,10.41
2023-04-08T11:30:38.468Z,10.48
2023-04-08T11:33:23.580Z,10.60
2023-04-08T11:36:08.612Z,10.51
2023-04-08T11:38:53.565Z,10.04
2023-04-08T11:41:38.371Z,10.10
2023-04-08T11:44:23.277Z,10.35
2023-04-08T11:47:08.008Z,10.07
2023-04-08T11:49:52.908Z,10.28
2023-04-08T11:52:37.824Z,9.97
2023-04-08T11:55:22.427Z,10.27
2023-04-08T11:58:07.530Z,10.47
2023-04-08T12:00:52.532Z,10.57
2023-04-08T12:03:37.524Z,10.23
2023-04-08T12:06:22.174Z,10.33
2023-04-08T12:09:07.247Z,10.32
2023-04-08T12:11:52.071Z,10.09
2023-04-08T12:14:37.057Z,10.36
2023-04-08T12:17:22.038Z,10.31
2023-04-08T12:20:06.900Z,10.62
2023-04-08T12:22:51.815Z,10.71
2023-04-08T12:25:36.684Z,10.90
2023-04-08T12:28:24.274Z,10.76
2023-04-08T12:31:09.198Z,11.13
2023-04-08T12:33:54.012Z,11.13
2023-04-08T12:36:40.576Z,11.10
2023-04-08T12:39:26.663Z,10.92
2023-04-08T12:42:11.543Z,11.02
2023-04-08T12:44:56.495Z,11.12
2023-04-08T12:47:41.451Z,11.00
2023-04-08T12:50:26.283Z,11.19
2023-04-08T12:53:11.119Z,11.21
2023-04-08T12:55:56.217Z,11.39
2023-04-08T12:58:41.091Z,11.13
2023-04-08T13:01:26.248Z,11.43
2023-04-08T13:04:10.993Z,11.41
2023-04-08T13:06:55.924Z,11.67
2023-04-08T13:09:40.813Z,11.81
2023-04-08T13:12:25.590Z,11.73
2023-04-08T13:15:10.563Z,12.11
2023-04-08T13:17:55.470Z,11.98
2023-04-08T13:20:40.397Z,11.87
2023-04-08T13:23:25.360Z,11.79
2023-04-08T13:26:10.261Z,11.95
2023-04-08T13:29:00.779Z,12.11
2023-04-08T13:31:45.933Z,11.77
2023-04-08T13:34:30.935Z,11.78
2023-04-08T13:37:15.744Z,11.38
2023-04-08T13:40:00.611Z,11.33
2023-04-08T13:42:45.549Z,11.48
2023-04-08T13:45:30.342Z,11.44
2023-04-08T13:48:15.247Z,11.34
2023-04-08T13:51:00.057Z,11.61
2023-04-08T13:53:45.043Z,11.29
2023-04-08T13:56:29.903Z,11.78
2023-04-08T13:59:14.674Z,11.85
2023-04-08T14:01:59.697Z,11.35
2023-04-08T14:04:44.670Z,11.33
2023-04-08T14:07:29.607Z,11.52
2023-04-08T14:10:14.549Z,11.62
2023-04-08T14:12:59.386Z,11.22
2023-04-08T14:15:44.216Z,11.74
2023-04-08T14:18:29.117Z,11.52
2023-04-08T14:21:13.917Z,11.50
2023-04-08T14:24:01.267Z,11.39
2023-04-08T14:26:47.298Z,11.55
2023-04-08T14:29:32.165Z,11.74
2023-04-08T14:32:18.116Z,11.54
2023-04-08T14:35:05.218Z,11.85
2023-04-08T14:37:52.719Z,11.80
2023-04-08T14:40:37.993Z,12.20
2023-04-08T14:43:23.792Z,12.49
2023-04-08T14:46:13.403Z,12.21
2023-04-08T14:48:58.764Z,12.34
2023-04-08T14:51:43.574Z,12.46
2023-04-08T14:54:28.375Z,12.53
2023-04-08T14:57:14.999Z,12.18
2023-04-08T15:00:00.640Z,12.44
2023-04-08T15:02:45.401Z,12.28
2023-04-08T15:05:30.092Z,12.17
2023-04-08T15:08:14.988Z,12.05
2023-04-08T15:10:59.850Z,12.16
2023-04-08T15:13:45.882Z,12.35
2023-04-08T15:16:30.629Z,12.51
2023-04-08T15:19:22.035Z,12.54
2023-04-08T15:22:06.754Z,12.72
2023-04-08T15:24:56.897Z,12.52
2023-04-08T15:27:41.881Z,12.31
2023-04-08T15:30:26.591Z,12.25
2023-04-08T15:33:11.703Z,12.27
2023-04-08T15:35:56.625Z,12.51
2023-04-08T15:38:41.555Z,12.55
2023-04-08T15:41:26.602Z,12.73
2023-04-08T15:44:11.680Z,12.51
2023-04-08T15:46:56.599Z,12.66
2023-04-08T15:49:41.486Z,12.34
2023-04-08T15:52:26.330Z,12.58
2023-04-08T15:55:11.253Z,12.57
2023-04-08T15:57:56.203Z,12.20
2023-04-08T16:00:41.057Z,12.40
2023-04-08T16:03:25.924Z,12.41
2023-04-08T16:06:14.981Z,12.32
2023-04-08T16:08:59.584Z,11.99
2023-04-08T16:11:44.498Z,11.63
2023-04-08T16:14:29.301Z,11.88
2023-04-08T16:17:14.150Z,11.61
2023-04-08T16:19:59.054Z,11.55
2023-04-08T16:22:43.824Z,11.76
2023-04-08T16:25:28.648Z,11.78
2023-04-08T16:28:13.636Z,11.88
2023-04-08T16:30:58.476Z,11.63
2023-04-08T16:33:43.332Z,11.52
2023-04-08T16:36:28.273Z,11.55
2023-04-08T16:39:13.075Z,11.52
2023-04-08T16:41:58.015Z,11.48
2023-04-08T16:44:42.718Z,11.47
2023-04-08T16:47:27.861Z,11.26
2023-04-08T16:50:12.776Z,11.40
2023-04-08T16:52:59.059Z,11.32
2023-04-08T16:55:43.771Z,11.46
2023-04-08T16:58:28.519Z,11.42
2023-04-08T17:01:13.584Z,11.24
2023-04-08T17:03:58.672Z,11.21
2023-04-08T17:06:43.396Z,11.18
2023-04-08T17:09:28.199Z,11.22
2023-04-08T17:12:13.187Z,11.19
2023-04-08T17:14:58.116Z,11.18
2023-04-08T17:17:43.173Z,11.00
2023-04-08T17:20:28.072Z,11.02
2023-04-08T17:23:13.040Z,10.95
2023-04-08T17:25:58.056Z,10.86
2023-04-08T17:28:42.821Z,10.75
2023-04-08T17:31:27.783Z,10.80
2023-04-08T17:34:12.539Z,10.73
2023-04-08T17:36:57.352Z,10.70
2023-04-08T17:39:42.203Z,10.70
2023-04-08T17:42:27.153Z,10.65
2023-04-08T17:45:12.144Z,10.60
2023-04-08T17:47:56.969Z,10.50
2023-04-08T17:50:41.865Z,10.51
2023-04-08T17:53:26.695Z,10.42
2023-04-08T17:56:11.818Z,10.43
2023-04-08T17:58:56.474Z,10.36
2023-04-08T18:01:41.706Z,10.28
2023-04-08T18:04:26.432Z,10.22
2023-04-08T18:07:11.392Z,10.16
2023-04-08T18:09:56.379Z,10.12
2023-04-08T18:12:41.369Z,9.98
2023-04-08T18:15:26.503Z,9.95
2023-04-08T18:18:11.299Z,9.87
2023-04-08T18:20:56.272Z,9.83
2023-04-08T18:23:41.139Z,9.77
2023-04-08T18:26:26.156Z,9.74
2023-04-08T18:29:11.111Z,9.71
2023-04-08T18:31:56.068Z,9.74
2023-04-08T18:34:41.140Z,9.58
2023-04-08T18:37:26.119Z,9.42
2023-04-08T18:40:11.172Z,9.38
2023-04-08T18:42:55.932Z,9.28
2023-04-08T18:45:40.888Z,9.16
2023-04-08T18:48:25.806Z,9.10
2023-04-08T18:51:10.759Z,9.06
2023-04-08T18:53:56.967Z,8.93
2023-04-08T18:56:41.849Z,8.72
2023-04-08T18:59:26.763Z,8.63
2023-04-08T19:02:11.604Z,8.58
2023-04-08T19:04:56.552Z,8.51
2023-04-08T19:07:41.263Z,8.51
2023-04-08T19:10:26.072Z,8.55
2023-04-08T19:13:10.984Z,8.44
2023-04-08T19:15:56.055Z,8.39
2023-04-08T19:18:41.314Z,8.39
2023-04-08T19:21:25.941Z,8.43
2023-04-08T19:24:10.978Z,8.32
2023-04-08T19:26:55.811Z,8.22
2023-04-08T19:29:40.787Z,8.23
2023-04-08T19:32:25.725Z,8.17
2023-04-08T19:35:10.645Z,8.10
2023-04-08T19:37:55.518Z,8.03
2023-04-08T19:40:40.330Z,8.00
2023-04-08T19:43:25.480Z,7.99
2023-04-08T19:46:10.255Z,7.94
2023-04-08T19:48:55.164Z,7.88
2023-04-08T19:51:40.109Z,7.87
2023-04-08T19:54:25.029Z,7.83
2023-04-08T19:57:09.900Z,7.94
2023-04-08T19:59:54.702Z,7.96
2023-04-08T20:02:39.808Z,7.82
2023-04-08T20:05:24.515Z,7.72
2023-04-08T20:08:09.487Z,7.70
2023-04-08T20:10:54.458Z,7.69
2023-04-08T20:13:39.503Z,7.58
2023-04-08T20:16:24.387Z,7.54
2023-04-08T20:19:09.309Z,7.52
2023-04-08T20:21:54.193Z,7.39
2023-04-08T20:24:39.571Z,7.30
2023-04-08T20:27:24.526Z,7.35
2023-04-08T20:30:09.562Z,7.35
2023-04-08T20:32:54.695Z,7.38
2023-04-08T20:35:39.463Z,7.27
2023-04-08T20:38:24.284Z,7.22
2023-04-08T20:41:09.148Z,7.11
2023-04-08T20:43:54.054Z,7.06
2023-04-08T20:46:38.978Z,7.01
2023-04-08T20:49:23.719Z,7.03
2023-04-08T20:52:08.818Z,6.97
2023-04-08T20:54:53.856Z,7.05
2023-04-08T20:57:39.829Z,7.02
2023-04-08T21:00:24.757Z,7.00
2023-04-08T21:03:09.790Z,6.99
2023-04-08T21:05:54.572Z,6.97
2023-04-08T21:08:39.480Z,6.93
2023-04-08T21:11:24.216Z,6.87
2023-04-08T21:14:09.097Z,6.91
2023-04-08T21:16:54.036Z,6.86
2023-04-08T21:19:38.981Z,6.84
2023-04-08T21:22:24.014Z,6.80
2023-04-08T21:25:08.944Z,6.79
2023-04-08T21:27:53.826Z,6.77
2023-04-08T21:30:38.836Z,6.58
2023-04-08T21:33:23.618Z,6.44
2023-04-08T21:36:08.454Z,6.47
2023-04-08T21:38:53.712Z,6.52
2023-04-08T21:41:38.839Z,6.59
2023-04-08T21:44:23.783Z,6.53
2023-04-08T21:47:08.821Z,6.50
2023-04-08T21:49:53.657Z,6.51
2023-04-08T21:52:39.332Z,6.48
2023-04-08T21:55:25.250Z,6.47
2023-04-08T21:58:10.177Z,6.40
2023-04-08T22:00:55.148Z,6.30
2023-04-08T22:03:39.949Z,6.27
2023-04-08T22:06:31.974Z,6.27
2023-04-08T22:09:17.782Z,6.33
2023-04-08T22:12:02.457Z,6.30
2023-04-08T22:14:47.534Z,6.29
2023-04-08T22:17:32.338Z,6.22
2023-04-08T22:20:17.236Z,6.27
2023-04-08T22:23:02.134Z,6.25
2023-04-08T22:25:46.854Z,6.18
2023-04-08T22:28:31.702Z,6.20
2023-04-08T22:31:16.616Z,6.13
2023-04-08T22:34:01.614Z,6.20
2023-04-08T22:36:46.389Z,6.06
2023-04-08T22:39:31.260Z,5.95
2023-04-08T22:42:16.166Z,5.94
2023-04-08T22:45:01.084Z,5.91
2023-04-08T22:47:45.980Z,5.96
2023-04-08T22:50:30.729Z,6.01
2023-04-08T22:53:15.713Z,5.95
2023-04-08T22:56:00.662Z,5.98
2023-04-08T22:58:45.594Z,5.91
2023-04-08T23:01:30.519Z,5.90
2023-04-08T23:04:15.694Z,5.87
2023-04-08T23:07:00.582Z,5.86
2023-04-08T23:09:45.580Z,5.84
2023-04-08T23:12:30.504Z,5.81
2023-04-08T23:15:15.349Z,5.82
2023-04-08T23:18:00.400Z,5.73
2023-04-08T23:20:45.289Z,5.67
2023-04-08T23:23:30.180Z,5.68
2023-04-08T23:26:15.029Z,5.67
2023-04-08T23:29:00.127Z,5.70
2023-04-08T23:31:44.872Z,5.68
2023-04-08T23:34:29.745Z,5.70
2023-04-08T23:37:14.513Z,5.69
2023-04-08T23:39:59.384Z,5.66
2023-04-08T23:42:44.401Z,5.62
2023-04-08T23:45:29.341Z,5.65
2023-04-08T23:48:14.273Z,5.58
2023-04-08T23:50:59.161Z,5.52
2023-04-08T23:53:44.080Z,5.50
2023-04-08T23:56:29.019Z,5.45
2023-04-08T23:59:13.887Z,5.40
